sensor_id;sensor_type;location;lat;lon;timestamp;pressure;altitude;pressure_sealevel;temperature;humidity
5595;BME280;1003;48.002;7.788;2022-12-26T00:00:08;99267.69;;;13.65;100.00
5595;BME280;1003;48.002;7.788;2022-12-26T00:02:36;99260.06;;;13.66;100.00
5595;BME280;1003;48.002;7.788;2022-12-26T00:05:05;99260.13;;;13.65;100.00
5595;BME280;1003;48.002;7.788;2022-12-26T00:07:33;99252.50;;;13.68;100.00
5595;BME280;1003;48.002;7.788;2022-12-26T00:10:00;99260.81;;;13.73;100.00
5595;BME280;1003;48.002;7.788;2022-12-26T00:12:27;99253.38;;;13.65;100.00
5595;BME280;1003;48.002;7.788;2022-12-26T00:14:54;99256.06;;;13.58;100.00
5595;BME280;1003;48.002;7.788;2022-12-26T00:17:21;99260.06;;;13.68;100.00
5595;BME280;1003;48.002;7.788;2022-12-26T00:19:48;99255.16;;;13.62;100.00
5595;BME280;1003;48.002;7.788;2022-12-26T00:22:15;99246.66;;;13.64;100.00
5595;BME280;1003;48.002;7.788;2022-12-26T00:24:44;99239.84;;;13.68;100.00
5595;BME280;1003;48.002;7.788;2022-12-26T00:27:11;99248.25;;;13.69;100.00
5595;BME280;1003;48.002;7.788;2022-12-26T00:29:38;99260.25;;;13.59;100.00
5595;BME280;1003;48.002;7.788;2022-12-26T00:32:05;99258.84;;;13.46;100.00
5595;BME280;1003;48.002;7.788;2022-12-26T00:34:32;99257.31;;;13.38;100.00
5595;BME280;1003;48.002;7.788;2022-12-26T00:36:59;99265.63;;;13.44;100.00
5595;BME280;1003;48.002;7.788;2022-12-26T00:39:26;99268.88;;;13.49;100.00
5595;BME280;1003;48.002;7.788;2022-12-26T00:41:54;99267.19;;;13.51;100.00
5595;BME280;1003;48.002;7.788;2022-12-26T00:44:21;99258.13;;;13.41;100.00
5595;BME280;1003;48.002;7.788;2022-12-26T00:46:48;99256.34;;;13.46;100.00
5595;BME280;1003;48.002;7.788;2022-12-26T00:49:15;99263.03;;;13.47;100.00
5595;BME280;1003;48.002;7.788;2022-12-26T00:51:42;99260.13;;;13.65;100.00
5595;BME280;1003;48.002;7.788;2022-12-26T00:54:09;99239.91;;;13.65;100.00
5595;BME280;1003;48.002;7.788;2022-12-26T00:56:37;99241.72;;;13.60;100.00
5595;BME280;1003;48.002;7.788;2022-12-26T00:59:05;99240.88;;;13.59;100.00
5595;BME280;1003;48.002;7.788;2022-12-26T01:01:32;99245.19;;;13.54;100.00
5595;BME280;1003;48.002;7.788;2022-12-26T01:03:59;99242.94;;;13.42;100.00
5595;BME280;1003;48.002;7.788;2022-12-26T01:06:26;99248.53;;;13.55;100.00
5595;BME280;1003;48.002;7.788;2022-12-26T01:08:53;99254.56;;;13.49;100.00
5595;BME280;1003;48.002;7.788;2022-12-26T01:11:21;99262.22;;;13.45;100.00
5595;BME280;1003;48.002;7.788;2022-12-26T01:14:02;99251.97;;;13.52;100.00
5595;BME280;1003;48.002;7.788;2022-12-26T01:16:30;99261.44;;;13.43;100.00
5595;BME280;1003;48.002;7.788;2022-12-26T01:18:58;99271.53;;;13.43;100.00
5595;BME280;1003;48.002;7.788;2022-12-26T01:21:25;99260.44;;;13.50;100.00
5595;BME280;1003;48.002;7.788;2022-12-26T01:23:52;99249.41;;;13.54;100.00
5595;BME280;1003;48.002;7.788;2022-12-26T01:26:19;99243.50;;;13.55;100.00
5595;BME280;1003;48.002;7.788;2022-12-26T01:28:46;99247.63;;;13.59;100.00
5595;BME280;1003;48.002;7.788;2022-12-26T01:31:14;99244.38;;;13.54;100.00
5595;BME280;1003;48.002;7.788;2022-12-26T01:33:42;99253.53;;;13.58;100.00
5595;BME280;1003;48.002;7.788;2022-12-26T01:36:10;99243.56;;;13.52;100.00
5595;BME280;1003;48.002;7.788;2022-12-26T01:38:37;99252.72;;;13.56;100.00
5595;BME280;1003;48.002;7.788;2022-12-26T01:41:04;99246.09;;;13.52;100.00
5595;BME280;1003;48.002;7.788;2022-12-26T01:43:51;99267.91;;;13.54;100.00
5595;BME280;1003;48.002;7.788;2022-12-26T01:46:24;99266.25;;;13.53;100.00
5595;BME280;1003;48.002;7.788;2022-12-26T01:48:57;99263.88;;;13.47;100.00
5595;BME280;1003;48.002;7.788;2022-12-26T01:51:32;99273.94;;;13.49;100.00
5595;BME280;1003;48.002;7.788;2022-12-26T01:54:07;99276.53;;;13.46;100.00
5595;BME280;1003;48.002;7.788;2022-12-26T01:56:38;99267.38;;;13.40;100.00
5595;BME280;1003;48.002;7.788;2022-12-26T01:59:12;99271.50;;;13.44;100.00
5595;BME280;1003;48.002;7.788;2022-12-26T02:01:42;99263.78;;;13.50;100.00
5595;BME280;1003;48.002;7.788;2022-12-26T02:04:15;99259.59;;;13.51;100.00
5595;BME280;1003;48.002;7.788;2022-12-26T02:07:03;99270.34;;;13.59;100.00
5595;BME280;1003;48.002;7.788;2022-12-26T02:09:32;99273.63;;;13.64;100.00
5595;BME280;1003;48.002;7.788;2022-12-26T02:12:05;99272.06;;;13.58;100.00
5595;BME280;1003;48.002;7.788;2022-12-26T02:14:35;99274.75;;;13.51;100.00
5595;BME280;1003;48.002;7.788;2022-12-26T02:17:03;99288.25;;;13.48;100.00
5595;BME280;1003;48.002;7.788;2022-12-26T02:19:42;99288.94;;;13.55;100.00
5595;BME280;1003;48.002;7.788;2022-12-26T02:22:56;99287.22;;;13.58;100.00
5595;BME280;1003;48.002;7.788;2022-12-26T02:25:51;99282.97;;;13.59;100.00
5595;BME280;1003;48.002;7.788;2022-12-26T02:29:00;99272.94;;;13.56;100.00
5595;BME280;1003;48.002;7.788;2022-12-26T02:31:45;99265.66;;;13.42;100.00
5595;BME280;1003;48.002;7.788;2022-12-26T02:34:18;99275.78;;;13.41;100.00
5595;BME280;1003;48.002;7.788;2022-12-26T02:37:13;99275.75;;;13.42;100.00
5595;BME280;1003;48.002;7.788;2022-12-26T02:40:04;99272.50;;;13.37;100.00
5595;BME280;1003;48.002;7.788;2022-12-26T02:42:52;99273.19;;;13.44;100.00
5595;BME280;1003;48.002;7.788;2022-12-26T02:45:31;99268.06;;;13.48;100.00
5595;BME280;1003;48.002;7.788;2022-12-26T02:48:30;99263.56;;;13.62;100.00
5595;BME280;1003;48.002;7.788;2022-12-26T02:51:15;99254.09;;;13.71;100.00
5595;BME280;1003;48.002;7.788;2022-12-26T02:54:14;99260.06;;;13.68;100.00
5595;BME280;1003;48.002;7.788;2022-12-26T02:57:07;99257.06;;;13.51;100.00
5595;BME280;1003;48.002;7.788;2022-12-26T02:59:57;99248.53;;;13.55;100.00
5595;BME280;1003;48.002;7.788;2022-12-26T03:02:49;99249.50;;;13.51;100.00
5595;BME280;1003;48.002;7.788;2022-12-26T03:05:41;99250.59;;;13.37;100.00
5595;BME280;1003;48.002;7.788;2022-12-26T03:08:31;99246.38;;;13.38;100.00
5595;BME280;1003;48.002;7.788;2022-12-26T03:11:17;99261.59;;;13.35;100.00
5595;BME280;1003;48.002;7.788;2022-12-26T03:14:13;99263.22;;;13.37;100.00
5595;BME280;1003;48.002;7.788;2022-12-26T03:16:47;99259.91;;;13.35;100.00
5595;BME280;1003;48.002;7.788;2022-12-26T03:19:36;99269.00;;;13.43;100.00
5595;BME280;1003;48.002;7.788;2022-12-26T03:22:28;99260.38;;;13.53;100.00
5595;BME280;1003;48.002;7.788;2022-12-26T03:24:59;99244.31;;;13.57;100.00
5595;BME280;1003;48.002;7.788;2022-12-26T03:27:45;99241.88;;;13.52;100.00
5595;BME280;1003;48.002;7.788;2022-12-26T03:30:13;99245.16;;;13.56;100.00
5595;BME280;1003;48.002;7.788;2022-12-26T03:32:58;99232.56;;;13.54;100.00
5595;BME280;1003;48.002;7.788;2022-12-26T03:35:29;99250.94;;;13.61;100.00
5595;BME280;1003;48.002;7.788;2022-12-26T03:38:06;99236.47;;;13.69;100.00
5595;BME280;1003;48.002;7.788;2022-12-26T03:40:51;99233.00;;;13.73;100.00
5595;BME280;1003;48.002;7.788;2022-12-26T03:44:01;99229.63;;;13.74;100.00
5595;BME280;1003;48.002;7.788;2022-12-26T03:47:03;99231.06;;;13.84;100.00
5595;BME280;1003;48.002;7.788;2022-12-26T03:50:00;99236.56;;;14.02;100.00
5595;BME280;1003;48.002;7.788;2022-12-26T03:52:59;99232.44;;;13.99;100.00
5595;BME280;1003;48.002;7.788;2022-12-26T03:55:54;99223.25;;;13.93;100.00
5595;BME280;1003;48.002;7.788;2022-12-26T03:58:46;99230.66;;;14.03;100.00
5595;BME280;1003;48.002;7.788;2022-12-26T04:01:36;99214.59;;;14.05;100.00
5595;BME280;1003;48.002;7.788;2022-12-26T04:04:26;99204.41;;;14.08;100.00
5595;BME280;1003;48.002;7.788;2022-12-26T04:07:19;99211.16;;;14.08;100.00
5595;BME280;1003;48.002;7.788;2022-12-26T04:10:12;99205.06;;;14.15;100.00
5595;BME280;1003;48.002;7.788;2022-12-26T04:13:02;99203.56;;;14.08;100.00
5595;BME280;1003;48.002;7.788;2022-12-26T04:15:57;99208.84;;;13.99;100.00
5595;BME280;1003;48.002;7.788;2022-12-26T04:18:52;99204.59;;;14.01;100.00
5595;BME280;1003;48.002;7.788;2022-12-26T04:21:44;99196.19;;;13.99;100.00
5595;BME280;1003;48.002;7.788;2022-12-26T04:24:39;99199.44;;;14.04;100.00
5595;BME280;1003;48.002;7.788;2022-12-26T04:27:29;99183.41;;;14.06;100.00
5595;BME280;1003;48.002;7.788;2022-12-26T04:30:16;99192.78;;;14.01;100.00
5595;BME280;1003;48.002;7.788;2022-12-26T04:33:08;99188.66;;;13.97;100.00
5595;BME280;1003;48.002;7.788;2022-12-26T04:36:00;99192.78;;;14.01;100.00
5595;BME280;1003;48.002;7.788;2022-12-26T04:38:51;99178.41;;;14.03;100.00
5595;BME280;1003;48.002;7.788;2022-12-26T04:41:38;99182.72;;;13.98;100.00
5595;BME280;1003;48.002;7.788;2022-12-26T04:44:26;99187.97;;;13.90;100.00
5595;BME280;1003;48.002;7.788;2022-12-26T04:46:56;99188.66;;;13.97;100.00
5595;BME280;1003;48.002;7.788;2022-12-26T04:49:23;99182.78;;;13.97;100.00
5595;BME280;1003;48.002;7.788;2022-12-26T04:52:11;99182.72;;;13.98;100.00
5595;BME280;1003;48.002;7.788;2022-12-26T04:54:39;99180.28;;;13.95;100.00
5595;BME280;1003;48.002;7.788;2022-12-26T04:57:07;99191.44;;;13.86;100.00
5595;BME280;1003;48.002;7.788;2022-12-26T04:59:34;99194.06;;;13.83;100.00
5595;BME280;1003;48.002;7.788;2022-12-26T05:02:02;99194.78;;;13.87;100.00
5595;BME280;1003;48.002;7.788;2022-12-26T05:04:52;99203.28;;;13.84;100.00
5595;BME280;1003;48.002;7.788;2022-12-26T05:07:37;99205.00;;;13.84;100.00
5595;BME280;1003;48.002;7.788;2022-12-26T05:10:24;99197.47;;;13.81;100.00
5595;BME280;1003;48.002;7.788;2022-12-26T05:12:53;99197.41;;;13.82;100.00
5595;BME280;1003;48.002;7.788;2022-12-26T05:15:21;99205.00;;;13.82;100.00
5595;BME280;1003;48.002;7.788;2022-12-26T05:17:49;99207.66;;;13.78;100.00
5595;BME280;1003;48.002;7.788;2022-12-26T05:20:34;99232.78;;;13.84;100.00
5595;BME280;1003;48.002;7.788;2022-12-26T05:23:23;99217.47;;;13.90;100.00
5595;BME280;1003;48.002;7.788;2022-12-26T05:26:14;99219.22;;;13.86;100.00
5595;BME280;1003;48.002;7.788;2022-12-26T05:28:59;99217.53;;;13.87;100.00
5595;BME280;1003;48.002;7.788;2022-12-26T05:31:29;99222.72;;;13.81;100.00
5595;BME280;1003;48.002;7.788;2022-12-26T05:33:57;99218.31;;;13.90;100.00
5595;BME280;1003;48.002;7.788;2022-12-26T05:36:37;99213.31;;;13.87;100.00
5595;BME280;1003;48.002;7.788;2022-12-26T05:39:05;99224.38;;;13.82;100.00
5595;BME280;1003;48.002;7.788;2022-12-26T05:41:32;99227.78;;;13.81;100.00
5595;BME280;1003;48.002;7.788;2022-12-26T05:44:00;99227.00;;;13.77;100.00
5595;BME280;1003;48.002;7.788;2022-12-26T05:46:27;99231.22;;;13.78;100.00
5595;BME280;1003;48.002;7.788;2022-12-26T05:48:54;99225.34;;;13.78;100.00
5595;BME280;1003;48.002;7.788;2022-12-26T05:51:22;99211.16;;;13.71;100.00
5595;BME280;1003;48.002;7.788;2022-12-26T05:53:50;99222.03;;;13.74;100.00
5595;BME280;1003;48.002;7.788;2022-12-26T05:56:19;99215.38;;;13.70;100.00
5595;BME280;1003;48.002;7.788;2022-12-26T05:58:46;99220.63;;;13.61;100.00
5595;BME280;1003;48.002;7.788;2022-12-26T06:01:18;99208.88;;;13.61;100.00
5595;BME280;1003;48.002;7.788;2022-12-26T06:03:48;99214.06;;;13.54;100.00
5595;BME280;1003;48.002;7.788;2022-12-26T06:06:16;99204.19;;;13.43;100.00
5595;BME280;1003;48.002;7.788;2022-12-26T06:08:47;99212.72;;;13.37;100.00
5595;BME280;1003;48.002;7.788;2022-12-26T06:11:15;99207.81;;;13.31;100.00
5595;BME280;1003;48.002;7.788;2022-12-26T06:13:43;99203.59;;;13.32;100.00
5595;BME280;1003;48.002;7.788;2022-12-26T06:16:13;99214.16;;;13.49;100.00
5595;BME280;1003;48.002;7.788;2022-12-26T06:18:41;99198.44;;;13.36;100.00
5595;BME280;1003;48.002;7.788;2022-12-26T06:21:10;99200.25;;;13.31;100.00
5595;BME280;1003;48.002;7.788;2022-12-26T06:23:39;99202.81;;;13.28;100.00
5595;BME280;1003;48.002;7.788;2022-12-26T06:26:07;99194.56;;;13.20;100.00
5595;BME280;1003;48.002;7.788;2022-12-26T06:28:37;99206.53;;;13.10;100.00
5595;BME280;1003;48.002;7.788;2022-12-26T06:31:08;99207.53;;;13.02;100.00
5595;BME280;1003;48.002;7.788;2022-12-26T06:33:36;99199.94;;;13.02;100.00
5595;BME280;1003;48.002;7.788;2022-12-26T06:36:05;99215.00;;;13.08;100.00
5595;BME280;1003;48.002;7.788;2022-12-26T06:38:34;99214.13;;;13.09;100.00
5595;BME280;1003;48.002;7.788;2022-12-26T06:41:05;99205.00;;;13.03;100.00
5595;BME280;1003;48.002;7.788;2022-12-26T06:43:33;99208.22;;;13.10;100.00
5595;BME280;1003;48.002;7.788;2022-12-26T06:46:03;99202.34;;;13.09;100.00
5595;BME280;1003;48.002;7.788;2022-12-26T06:48:32;99199.25;;;12.95;100.00
5595;BME280;1003;48.002;7.788;2022-12-26T06:51:05;99213.72;;;12.85;100.00
5595;BME280;1003;48.002;7.788;2022-12-26T06:53:33;99219.78;;;12.77;100.00
5595;BME280;1003;48.002;7.788;2022-12-26T06:56:05;99210.59;;;12.73;100.00
5595;BME280;1003;48.002;7.788;2022-12-26T06:58:35;99229.09;;;12.73;100.00
5595;BME280;1003;48.002;7.788;2022-12-26T07:01:07;99250.81;;;12.80;100.00
5595;BME280;1003;48.002;7.788;2022-12-26T07:03:35;99248.31;;;12.79;100.00
5595;BME280;1003;48.002;7.788;2022-12-26T07:06:04;99250.13;;;12.72;100.00
5595;BME280;1003;48.002;7.788;2022-12-26T07:08:32;99257.84;;;12.63;100.00
5595;BME280;1003;48.002;7.788;2022-12-26T07:11:00;99277.25;;;12.59;100.00
5595;BME280;1003;48.002;7.788;2022-12-26T07:13:27;99267.25;;;12.55;100.00
5595;BME280;1003;48.002;7.788;2022-12-26T07:15:58;99290.84;;;12.51;100.00
5595;BME280;1003;48.002;7.788;2022-12-26T07:18:25;99306.03;;;12.46;100.00
5595;BME280;1003;48.002;7.788;2022-12-26T07:20:52;99307.75;;;12.43;100.00
5595;BME280;1003;48.002;7.788;2022-12-26T07:23:19;99318.72;;;12.40;100.00
5595;BME280;1003;48.002;7.788;2022-12-26T07:25:46;99326.28;;;12.40;100.00
5595;BME280;1003;48.002;7.788;2022-12-26T07:28:14;99337.28;;;12.36;100.00
5595;BME280;1003;48.002;7.788;2022-12-26T07:30:46;99344.91;;;12.33;100.00
5595;BME280;1003;48.002;7.788;2022-12-26T07:33:14;99345.75;;;12.30;100.00
5595;BME280;1003;48.002;7.788;2022-12-26T07:35:41;99354.22;;;12.26;100.00
5595;BME280;1003;48.002;7.788;2022-12-26T07:38:10;99353.41;;;12.24;100.00
5595;BME280;1003;48.002;7.788;2022-12-26T07:40:37;99382.78;;;12.25;100.00
5595;BME280;1003;48.002;7.788;2022-12-26T07:43:05;99401.31;;;12.21;100.00
5595;BME280;1003;48.002;7.788;2022-12-26T07:45:32;99413.13;;;12.19;100.00
5595;BME280;1003;48.002;7.788;2022-12-26T07:47:59;99422.34;;;12.22;100.00
5595;BME280;1003;48.002;7.788;2022-12-26T07:50:27;99418.97;;;12.23;100.00
5595;BME280;1003;48.002;7.788;2022-12-26T07:52:55;99432.41;;;12.22;100.00
5595;BME280;1003;48.002;7.788;2022-12-26T07:55:22;99435.72;;;12.27;100.00
5595;BME280;1003;48.002;7.788;2022-12-26T07:57:49;99446.44;;;12.41;100.00
5595;BME280;1003;48.002;7.788;2022-12-26T08:00:18;99440.38;;;12.53;100.00
5595;BME280;1003;48.002;7.788;2022-12-26T08:02:48;99460.41;;;12.64;100.00
5595;BME280;1003;48.002;7.788;2022-12-26T08:05:16;99491.38;;;12.73;100.00
5595;BME280;1003;48.002;7.788;2022-12-26T08:07:47;99509.78;;;12.81;100.00
5595;BME280;1003;48.002;7.788;2022-12-26T08:10:15;99519.09;;;12.75;100.00
5595;BME280;1003;48.002;7.788;2022-12-26T08:12:42;99549.50;;;12.64;100.00
5595;BME280;1003;48.002;7.788;2022-12-26T08:15:11;99582.38;;;12.59;100.00
5595;BME280;1003;48.002;7.788;2022-12-26T08:17:38;99601.84;;;12.45;100.00
5595;BME280;1003;48.002;7.788;2022-12-26T08:20:06;99636.25;;;12.48;100.00
5595;BME280;1003;48.002;7.788;2022-12-26T08:22:34;99660.69;;;12.43;100.00
5595;BME280;1003;48.002;7.788;2022-12-26T08:25:03;99690.09;;;12.42;100.00
5595;BME280;1003;48.002;7.788;2022-12-26T08:27:30;99708.66;;;12.32;100.00
5595;BME280;1003;48.002;7.788;2022-12-26T08:29:58;99735.50;;;12.41;100.00
5595;BME280;1003;48.002;7.788;2022-12-26T08:32:25;99759.97;;;12.28;100.00
5595;BME280;1003;48.002;7.788;2022-12-26T08:34:53;99782.66;;;12.28;100.00
5595;BME280;1003;48.002;7.788;2022-12-26T08:37:20;99805.41;;;12.19;100.00
5595;BME280;1003;48.002;7.788;2022-12-26T08:39:48;99822.19;;;12.20;100.00
5595;BME280;1003;48.002;7.788;2022-12-26T08:42:18;99854.94;;;12.24;100.00
5595;BME280;1003;48.002;7.788;2022-12-26T08:44:46;99861.66;;;12.27;100.00
5595;BME280;1003;48.002;7.788;2022-12-26T08:47:13;99860.84;;;12.22;100.00
5595;BME280;1003;48.002;7.788;2022-12-26T08:49:41;99881.03;;;12.17;100.00
5595;BME280;1003;48.002;7.788;2022-12-26T08:52:08;99895.28;;;12.15;100.00
5595;BME280;1003;48.002;7.788;2022-12-26T08:54:35;99919.66;;;12.15;100.00
5595;BME280;1003;48.002;7.788;2022-12-26T08:57:05;99947.41;;;12.13;100.00
5595;BME280;1003;48.002;7.788;2022-12-26T08:59:34;99958.31;;;12.12;100.00
5595;BME280;1003;48.002;7.788;2022-12-26T09:02:01;99987.75;;;12.02;100.00
5595;BME280;1003;48.002;7.788;2022-12-26T09:04:29;100012.91;;;12.13;100.00
5595;BME280;1003;48.002;7.788;2022-12-26T09:06:56;100033.09;;;11.99;100.00
5595;BME280;1003;48.002;7.788;2022-12-26T09:09:23;100059.97;;;11.94;100.00
5595;BME280;1003;48.002;7.788;2022-12-26T09:11:50;100080.16;;;11.90;100.00
5595;BME280;1003;48.002;7.788;2022-12-26T09:14:17;100097.81;;;11.85;100.00
5595;BME280;1003;48.002;7.788;2022-12-26T09:16:46;100121.31;;;11.84;100.00
5595;BME280;1003;48.002;7.788;2022-12-26T09:19:15;100125.47;;;11.83;100.00
5595;BME280;1003;48.002;7.788;2022-12-26T09:21:43;100151.53;;;11.82;100.00
5595;BME280;1003;48.002;7.788;2022-12-26T09:24:12;100168.28;;;11.79;100.00
5595;BME280;1003;48.002;7.788;2022-12-26T09:26:40;100199.38;;;11.82;100.00
5595;BME280;1003;48.002;7.788;2022-12-26T09:29:09;100220.38;;;11.81;100.00
5595;BME280;1003;48.002;7.788;2022-12-26T09:31:36;100236.31;;;11.83;100.00
5595;BME280;1003;48.002;7.788;2022-12-26T09:34:06;100262.38;;;11.86;100.00
5595;BME280;1003;48.002;7.788;2022-12-26T09:36:36;100297.63;;;11.87;100.00
5595;BME280;1003;48.002;7.788;2022-12-26T09:39:05;100313.56;;;11.83;100.00
5595;BME280;1003;48.002;7.788;2022-12-26T09:41:53;100344.66;;;11.88;100.00
5595;BME280;1003;48.002;7.788;2022-12-26T09:44:32;100360.63;;;11.92;100.00
5595;BME280;1003;48.002;7.788;2022-12-26T09:47:17;100375.75;;;11.92;100.00
5595;BME280;1003;48.002;7.788;2022-12-26T09:49:55;100395.06;;;11.90;100.00
5595;BME280;1003;48.002;7.788;2022-12-26T09:52:40;100403.44;;;11.87;100.00
5595;BME280;1003;48.002;7.788;2022-12-26T09:55:28;100426.91;;;11.78;100.00
5595;BME280;1003;48.002;7.788;2022-12-26T09:58:00;100437.78;;;11.77;100.00
5595;BME280;1003;48.002;7.788;2022-12-26T10:00:46;100452.91;;;11.77;100.00
5595;BME280;1003;48.002;7.788;2022-12-26T10:03:16;100469.66;;;11.72;100.00
5595;BME280;1003;48.002;7.788;2022-12-26T10:06:02;100495.69;;;11.70;100.00
5595;BME280;1003;48.002;7.788;2022-12-26T10:09:16;100508.22;;;11.62;100.00
5595;BME280;1003;48.002;7.788;2022-12-26T10:12:00;100508.22;;;11.61;100.00
5595;BME280;1003;48.002;7.788;2022-12-26T10:14:40;100520.81;;;11.59;100.00
5595;BME280;1003;48.002;7.788;2022-12-26T10:17:18;100514.88;;;11.55;100.00
5595;BME280;1003;48.002;7.788;2022-12-26T10:26:11;100489.78;;;11.63;100.00
5595;BME280;1003;48.002;7.788;2022-12-26T10:28:44;100509.25;;;11.87;100.00
5595;BME280;1003;48.002;7.788;2022-12-26T10:31:20;100499.22;;;11.92;100.00
5595;BME280;1003;48.002;7.788;2022-12-26T10:33:55;100498.34;;;11.88;100.00
5595;BME280;1003;48.002;7.788;2022-12-26T10:36:34;100500.91;;;11.97;100.00
5595;BME280;1003;48.002;7.788;2022-12-26T10:39:12;100495.03;;;11.98;100.00
5595;BME280;1003;48.002;7.788;2022-12-26T10:41:44;100489.13;;;11.92;100.00
5595;BME280;1003;48.002;7.788;2022-12-26T10:44:14;100495.88;;;11.96;100.00
5595;BME280;1003;48.002;7.788;2022-12-26T10:47:21;100494.13;;;11.82;100.00
5595;BME280;1003;48.002;7.788;2022-12-26T10:49:49;100500.78;;;11.79;100.00
5595;BME280;1003;48.002;7.788;2022-12-26T10:52:21;100478.91;;;11.70;100.00
5595;BME280;1003;48.002;7.788;2022-12-26T10:54:55;100489.03;;;11.79;100.00
5595;BME280;1003;48.002;7.788;2022-12-26T10:57:26;100481.44;;;11.73;100.00
5595;BME280;1003;48.002;7.788;2022-12-26T10:59:55;100468.78;;;11.67;100.00
5595;BME280;1003;48.002;7.788;2022-12-26T11:02:26;100470.47;;;11.64;100.00
5595;BME280;1003;48.002;7.788;2022-12-26T11:05:06;100478.94;;;11.78;100.00
5595;BME280;1003;48.002;7.788;2022-12-26T11:07:37;100482.19;;;11.60;100.00
5595;BME280;1003;48.002;7.788;2022-12-26T11:10:17;100495.84;;;11.90;100.00
5595;BME280;1003;48.002;7.788;2022-12-26T11:12:50;100494.16;;;11.84;100.00
5595;BME280;1003;48.002;7.788;2022-12-26T11:15:25;100489.13;;;11.92;100.00
5595;BME280;1003;48.002;7.788;2022-12-26T11:18:08;100490.78;;;11.87;100.00
5595;BME280;1003;48.002;7.788;2022-12-26T11:20:42;100487.41;;;11.81;100.00
5595;BME280;1003;48.002;7.788;2022-12-26T11:23:26;100487.47;;;11.97;100.00
5595;BME280;1003;48.002;7.788;2022-12-26T11:25:57;100472.38;;;11.97;100.00
5595;BME280;1003;48.002;7.788;2022-12-26T11:28:29;100454.75;;;12.04;100.00
5595;BME280;1003;48.002;7.788;2022-12-26T11:30:59;100440.41;;;11.88;100.00
5595;BME280;1003;48.002;7.788;2022-12-26T11:33:30;100431.13;;;11.82;100.00
5595;BME280;1003;48.002;7.788;2022-12-26T11:36:10;100410.03;;;11.67;100.00
5595;BME280;1003;48.002;7.788;2022-12-26T11:38:49;100413.38;;;11.63;100.00
5595;BME280;1003;48.002;7.788;2022-12-26T11:41:33;100421.72;;;11.55;100.00
5595;BME280;1003;48.002;7.788;2022-12-26T11:44:22;100425.88;;;11.47;100.00
5595;BME280;1003;48.002;7.788;2022-12-26T11:46:56;100414.06;;;11.39;100.00
5595;BME280;1003;48.002;7.788;2022-12-26T11:49:30;100409.06;;;11.45;100.00
5595;BME280;1003;48.002;7.788;2022-12-26T11:52:00;100401.53;;;11.51;100.00
5595;BME280;1003;48.002;7.788;2022-12-26T11:54:33;100399.03;;;11.48;100.00
5595;BME280;1003;48.002;7.788;2022-12-26T11:57:18;100393.94;;;11.39;100.00
5595;BME280;1003;48.002;7.788;2022-12-26T11:59:48;100388.91;;;11.36;100.00
5595;BME280;1003;48.002;7.788;2022-12-26T12:02:27;100392.28;;;11.42;100.00
5595;BME280;1003;48.002;7.788;2022-12-26T12:04:59;100390.53;;;11.35;100.00
5595;BME280;1003;48.002;7.788;2022-12-26T12:08:06;100404.84;;;11.38;100.00
5595;BME280;1003;48.002;7.788;2022-12-26T12:11:12;100402.25;;;11.28;100.00
5595;BME280;1003;48.002;7.788;2022-12-26T12:14:13;100403.13;;;11.35;100.00
5595;BME280;1003;48.002;7.788;2022-12-26T12:17:00;100395.53;;;11.26;100.00
5595;BME280;1003;48.002;7.788;2022-12-26T12:19:45;100388.03;;;11.30;100.00
5595;BME280;1003;48.002;7.788;2022-12-26T12:23:00;100382.06;;;11.19;100.00
5595;BME280;1003;48.002;7.788;2022-12-26T12:25:59;100383.00;;;11.30;100.00
5595;BME280;1003;48.002;7.788;2022-12-26T12:29:21;100372.03;;;11.27;100.00
5595;BME280;1003;48.002;7.788;2022-12-26T12:32:07;100377.91;;;11.27;100.00
5595;BME280;1003;48.002;7.788;2022-12-26T12:34:59;100364.50;;;11.27;100.00
5595;BME280;1003;48.002;7.788;2022-12-26T12:37:43;100343.50;;;11.22;100.00
5595;BME280;1003;48.002;7.788;2022-12-26T12:40:28;100340.09;;;11.15;100.00
5595;BME280;1003;48.002;7.788;2022-12-26T12:43:07;100331.69;;;11.13;100.00
5595;BME280;1003;48.002;7.788;2022-12-26T12:45:52;100347.66;;;11.17;100.00
5595;BME280;1003;48.002;7.788;2022-12-26T12:48:53;100352.63;;;11.08;100.00
5595;BME280;1003;48.002;7.788;2022-12-26T12:51:32;100375.25;;;11.04;100.00
5595;BME280;1003;48.002;7.788;2022-12-26T12:54:47;100355.06;;;10.95;100.00
5595;BME280;1003;48.002;7.788;2022-12-26T12:57:26;100358.44;;;11.02;100.00
5595;BME280;1003;48.002;7.788;2022-12-26T13:00:12;100353.38;;;10.96;100.00
5595;BME280;1003;48.002;7.788;2022-12-26T13:02:48;100359.22;;;10.92;100.00
5595;BME280;1003;48.002;7.788;2022-12-26T13:05:29;100366.78;;;10.95;100.00
5595;BME280;1003;48.002;7.788;2022-12-26T13:08:09;100374.53;;;11.22;100.00
5595;BME280;1003;48.002;7.788;2022-12-26T13:10:45;100369.41;;;11.09;100.00
5595;BME280;1003;48.002;7.788;2022-12-26T13:13:23;100361.03;;;11.13;100.00
5595;BME280;1003;48.002;7.788;2022-12-26T13:15:57;100328.38;;;11.20;100.00
5595;BME280;1003;48.002;7.788;2022-12-26T13:18:33;100341.81;;;11.19;100.00
5595;BME280;1003;48.002;7.788;2022-12-26T13:21:06;100330.06;;;11.21;100.00
5595;BME280;1003;48.002;7.788;2022-12-26T13:23:42;100340.19;;;11.32;100.00
5595;BME280;1003;48.002;7.788;2022-12-26T13:26:33;100340.22;;;11.37;100.00
5595;BME280;1003;48.002;7.788;2022-12-26T13:29:11;100346.91;;;11.35;100.00
5595;BME280;1003;48.002;7.788;2022-12-26T13:31:40;100342.78;;;11.41;100.00
5595;BME280;1003;48.002;7.788;2022-12-26T13:34:14;100356.31;;;11.63;100.00
5595;BME280;1003;48.002;7.788;2022-12-26T13:36:45;100361.31;;;11.57;100.00
5595;BME280;1003;48.002;7.788;2022-12-26T13:39:38;100343.63;;;11.51;100.00
5595;BME280;1003;48.002;7.788;2022-12-26T13:42:31;100333.63;;;11.63;100.00
5595;BME280;1003;48.002;7.788;2022-12-26T13:45:52;100353.81;;;11.77;100.00
5595;BME280;1003;48.002;7.788;2022-12-26T13:49:08;100351.28;;;11.69;100.00
5595;BME280;1003;48.002;7.788;2022-12-26T13:51:59;100348.78;;;11.68;100.00
5595;BME280;1003;48.002;7.788;2022-12-26T13:55:28;100332.78;;;11.61;100.00
5595;BME280;1003;48.002;7.788;2022-12-26T13:58:28;100326.88;;;11.53;100.00
5595;BME280;1003;48.002;7.788;2022-12-26T14:01:09;100320.97;;;11.48;100.00
5595;BME280;1003;48.002;7.788;2022-12-26T14:03:59;100311.75;;;11.50;100.00